createdAt,value
2023-05-09T00:01:27.923Z,16.28
2023-05-09T00:04:34.422Z,16.34
2023-05-09T00:07:40.015Z,16.30
2023-05-09T00:10:45.420Z,16.27
2023-05-09T00:13:51.255Z,16.18
2023-05-09T00:16:59.522Z,16.21
2023-05-09T00:20:09.887Z,16.23
2023-05-09T00:23:15.378Z,16.22
2023-05-09T00:26:22.162Z,16.16
2023-05-09T00:29:28.124Z,16.18
2023-05-09T00:32:34.411Z,16.17
2023-05-09T00:35:40.640Z,16.11
2023-05-09T00:38:46.577Z,16.22
2023-05-09T00:41:53.780Z,16.22
2023-05-09T00:45:00.553Z,16.17
2023-05-09T00:48:06.829Z,16.23
2023-05-09T00:51:12.542Z,16.20
2023-05-09T00:54:18.308Z,16.11
2023-05-09T00:57:23.930Z,16.11
2023-05-09T01:00:29.616Z,16.15
2023-05-09T01:03:36.631Z,16.00
2023-05-09T01:06:58.283Z,15.98
2023-05-09T01:10:42.901Z,15.97
2023-05-09T01:13:49.230Z,15.89
2023-05-09T01:17:21.808Z,15.88
2023-05-09T01:20:46.464Z,15.86
2023-05-09T01:24:08.698Z,15.92
2023-05-09T01:27:33.917Z,15.93
2023-05-09T01:30:45.528Z,15.84
2023-05-09T01:33:56.908Z,15.94
2023-05-09T01:37:05.846Z,15.83
2023-05-09T01:40:17.183Z,15.88
2023-05-09T01:43:23.783Z,15.94
2023-05-09T01:46:31.069Z,15.90
2023-05-09T01:49:39.785Z,15.87
2023-05-09T01:52:48.485Z,15.92
2023-05-09T01:55:55.500Z,15.82
2023-05-09T01:59:03.127Z,15.82
2023-05-09T02:02:08.813Z,15.84
2023-05-09T02:05:16.523Z,15.80
2023-05-09T02:08:23.263Z,15.88
2023-05-09T02:11:29.085Z,15.86
2023-05-09T02:14:34.862Z,15.78
2023-05-09T02:17:40.745Z,15.87
2023-05-09T02:20:48.097Z,15.83
2023-05-09T02:23:54.082Z,15.82
2023-05-09T02:27:01.191Z,15.87
2023-05-09T02:30:12.587Z,15.75
2023-05-09T02:33:18.336Z,15.68
2023-05-09T02:36:24.814Z,15.72
2023-05-09T02:39:30.823Z,15.74
2023-05-09T02:42:36.909Z,15.74
2023-05-09T02:45:42.897Z,15.68
2023-05-09T02:48:49.731Z,15.69
2023-05-09T02:51:55.689Z,15.65
2023-05-09T02:55:01.738Z,15.65
2023-05-09T02:58:14.227Z,15.69
2023-05-09T03:01:23.175Z,15.64
2023-05-09T03:04:28.771Z,15.72
2023-05-09T03:07:34.568Z,15.73
2023-05-09T03:10:40.744Z,15.84
2023-05-09T03:13:46.228Z,15.73
2023-05-09T03:16:51.850Z,15.64
2023-05-09T03:20:05.944Z,15.52
2023-05-09T03:23:11.289Z,15.69
2023-05-09T03:26:17.091Z,15.74
2023-05-09T03:29:24.177Z,15.58
2023-05-09T03:32:29.858Z,15.76
2023-05-09T03:35:35.834Z,15.57
2023-05-09T03:38:41.687Z,15.57
2023-05-09T03:41:47.358Z,15.56
2023-05-09T03:44:53.432Z,15.56
2023-05-09T03:48:00.266Z,15.64
2023-05-09T03:51:05.621Z,15.47
2023-05-09T03:54:16.181Z,15.51
2023-05-09T03:57:21.941Z,15.58
2023-05-09T04:00:30.505Z,15.53
2023-05-09T04:03:45.356Z,15.63
2023-05-09T04:06:52.924Z,15.78
2023-05-09T04:09:58.784Z,15.62
2023-05-09T04:13:04.654Z,15.62
2023-05-09T04:16:10.887Z,15.35
2023-05-09T04:19:17.812Z,15.48
2023-05-09T04:22:23.576Z,15.52
2023-05-09T04:25:31.424Z,15.49
2023-05-09T04:28:37.497Z,15.53
2023-05-09T04:31:44.530Z,15.55
2023-05-09T04:34:52.195Z,15.48
2023-05-09T04:38:03.206Z,15.48
2023-05-09T04:41:09.272Z,15.47
2023-05-09T04:44:14.686Z,15.53
2023-05-09T04:47:21.258Z,15.47
2023-05-09T04:50:26.430Z,15.45
2023-05-09T04:53:32.259Z,15.43
2023-05-09T04:56:39.471Z,15.53
2023-05-09T04:59:44.919Z,15.48
2023-05-09T05:02:53.845Z,15.52
2023-05-09T05:05:59.907Z,15.47
2023-05-09T05:09:06.192Z,15.40
2023-05-09T05:12:12.326Z,15.41
2023-05-09T05:15:20.962Z,15.51
2023-05-09T05:18:27.941Z,15.45
2023-05-09T05:21:33.807Z,15.47
2023-05-09T05:24:39.742Z,15.78
2023-05-09T05:27:45.670Z,16.16
2023-05-09T05:30:51.814Z,16.10
2023-05-09T05:33:57.088Z,16.13
2023-05-09T05:37:03.249Z,15.83
2023-05-09T05:40:09.416Z,15.91
2023-05-09T05:43:17.797Z,15.91
2023-05-09T05:46:22.971Z,15.75
2023-05-09T05:49:28.821Z,15.89
2023-05-09T05:52:35.017Z,15.90
2023-05-09T05:55:40.850Z,15.97
2023-05-09T05:58:46.566Z,16.00
2023-05-09T06:01:52.054Z,16.01
2023-05-09T06:04:58.044Z,16.05
2023-05-09T06:08:04.244Z,16.14
2023-05-09T06:11:11.591Z,16.17
2023-05-09T06:14:16.822Z,16.11
2023-05-09T06:17:24.580Z,16.26
2023-05-09T06:20:30.281Z,16.26
2023-05-09T06:23:44.679Z,16.35
2023-05-09T06:26:57.072Z,16.37
2023-05-09T06:30:11.243Z,16.27
2023-05-09T06:33:24.419Z,16.27
2023-05-09T06:36:30.989Z,16.33
2023-05-09T06:39:36.916Z,16.47
2023-05-09T06:42:42.312Z,16.58
2023-05-09T06:45:48.104Z,16.61
2023-05-09T06:48:53.492Z,16.58
2023-05-09T06:51:58.924Z,16.53
2023-05-09T06:55:05.231Z,16.71
2023-05-09T06:58:12.328Z,16.82
2023-05-09T07:01:18.378Z,16.91
2023-05-09T07:04:24.239Z,16.91
2023-05-09T07:07:29.759Z,17.00
2023-05-09T07:10:36.309Z,16.98
2023-05-09T07:13:42.260Z,17.05
2023-05-09T07:16:48.326Z,17.19
2023-05-09T07:19:54.314Z,17.19
2023-05-09T07:23:00.225Z,17.21
2023-05-09T07:26:05.679Z,17.49
2023-05-09T07:29:11.666Z,17.31
2023-05-09T07:32:17.570Z,17.14
2023-05-09T07:35:23.411Z,17.30
2023-05-09T07:38:29.037Z,17.31
2023-05-09T07:41:34.683Z,17.37
2023-05-09T07:44:40.381Z,17.58
2023-05-09T07:47:45.813Z,17.59
2023-05-09T07:50:51.742Z,17.60
2023-05-09T07:53:57.788Z,17.78
2023-05-09T07:57:03.440Z,17.72
2023-05-09T08:00:10.971Z,17.71
2023-05-09T08:03:21.025Z,17.81
2023-05-09T08:06:26.813Z,17.78
2023-05-09T08:09:32.765Z,18.07
2023-05-09T08:12:39.266Z,18.04
2023-05-09T08:15:45.292Z,18.28
2023-05-09T08:18:51.002Z,18.12
2023-05-09T08:21:56.534Z,18.21
2023-05-09T08:25:01.828Z,18.15
2023-05-09T08:28:07.157Z,18.11
2023-05-09T08:31:12.548Z,18.01
2023-05-09T08:34:18.066Z,18.28
2023-05-09T08:37:23.281Z,18.44
2023-05-09T08:40:29.074Z,18.65
2023-05-09T08:43:35.514Z,18.74
2023-05-09T08:46:44.894Z,18.63
2023-05-09T08:49:51.782Z,18.69
2023-05-09T08:52:57.708Z,18.93
2023-05-09T08:56:04.387Z,18.96
2023-05-09T08:59:10.792Z,19.04
2023-05-09T09:02:17.914Z,19.39
2023-05-09T09:05:40.079Z,19.52
2023-05-09T09:08:49.303Z,19.18
2023-05-09T09:11:55.714Z,19.27
2023-05-09T09:15:06.213Z,19.33
2023-05-09T09:18:22.974Z,19.42
2023-05-09T09:21:28.640Z,19.20
2023-05-09T09:24:34.797Z,19.39
2023-05-09T09:27:42.190Z,19.45
2023-05-09T09:30:50.254Z,19.42
2023-05-09T09:34:02.896Z,19.39
2023-05-09T09:37:08.514Z,19.60
2023-05-09T09:40:15.056Z,19.76
2023-05-09T09:43:20.777Z,20.08
2023-05-09T09:46:26.555Z,19.74
2023-05-09T09:49:32.123Z,19.82
2023-05-09T09:52:37.704Z,19.46
2023-05-09T09:55:53.576Z,19.79
2023-05-09T09:59:18.950Z,19.89
2023-05-09T10:02:25.119Z,19.92
2023-05-09T10:05:32.769Z,20.44
2023-05-09T10:08:38.320Z,20.41
2023-05-09T10:11:43.771Z,20.01
2023-05-09T10:14:49.940Z,20.38
2023-05-09T10:17:58.804Z,20.46
2023-05-09T10:21:07.993Z,20.59
2023-05-09T10:24:14.072Z,20.62
2023-05-09T10:27:23.128Z,20.69
2023-05-09T10:30:34.249Z,20.91
2023-05-09T10:33:48.903Z,20.94
2023-05-09T10:36:55.158Z,20.92
2023-05-09T10:40:03.405Z,20.93
2023-05-09T10:43:08.639Z,20.58
2023-05-09T10:46:14.990Z,21.00
2023-05-09T10:49:21.229Z,20.92
2023-05-09T10:52:33.936Z,21.23
2023-05-09T10:55:52.488Z,21.19
2023-05-09T10:59:02.375Z,21.08
2023-05-09T11:02:16.313Z,21.17
2023-05-09T11:05:22.017Z,21.38
2023-05-09T11:08:29.830Z,21.39
2023-05-09T11:11:51.671Z,20.82
2023-05-09T11:15:08.244Z,21.09
2023-05-09T11:18:13.775Z,21.32
2023-05-09T11:21:20.790Z,21.33
2023-05-09T11:24:31.336Z,21.32
2023-05-09T11:27:47.135Z,20.97
2023-05-09T11:30:54.242Z,21.58
2023-05-09T11:34:05.269Z,21.04
2023-05-09T11:37:12.184Z,21.17
2023-05-09T11:40:20.065Z,21.43
2023-05-09T11:43:26.004Z,21.56
2023-05-09T11:46:31.927Z,21.69
2023-05-09T11:49:37.636Z,21.66
2023-05-09T11:52:43.737Z,21.64
2023-05-09T11:55:49.881Z,21.57
2023-05-09T11:58:55.700Z,21.48
2023-05-09T12:02:07.877Z,21.71
2023-05-09T12:05:18.824Z,21.74
2023-05-09T12:08:28.718Z,21.68
2023-05-09T12:11:35.297Z,21.43
2023-05-09T12:14:41.893Z,21.70
2023-05-09T12:17:50.479Z,21.70
2023-05-09T12:20:57.662Z,21.44
2023-05-09T12:24:02.834Z,21.40
2023-05-09T12:27:08.211Z,21.72
2023-05-09T12:30:16.314Z,21.84
2023-05-09T12:33:22.590Z,21.96
2023-05-09T12:36:28.069Z,22.00
2023-05-09T12:39:34.126Z,22.25
2023-05-09T12:42:43.270Z,22.22
2023-05-09T12:45:52.969Z,21.34
2023-05-09T12:48:58.452Z,21.08
2023-05-09T12:52:05.066Z,21.65
2023-05-09T12:55:14.155Z,22.23
2023-05-09T12:58:19.581Z,22.19
2023-05-09T13:01:29.520Z,21.75
2023-05-09T13:04:34.922Z,21.90
2023-05-09T13:07:48.961Z,22.42
2023-05-09T13:11:04.035Z,22.32
2023-05-09T13:15:21.805Z,22.31
2023-05-09T13:18:27.145Z,22.05
2023-05-09T13:21:33.733Z,22.71
2023-05-09T13:24:38.916Z,22.57
2023-05-09T13:27:44.179Z,22.11
2023-05-09T13:30:49.577Z,22.19
2023-05-09T13:33:54.818Z,22.62
2023-05-09T13:37:00.024Z,22.14
2023-05-09T13:40:06.242Z,21.88
2023-05-09T13:43:11.607Z,21.54
2023-05-09T13:46:17.145Z,21.50
2023-05-09T13:49:22.735Z,21.36
2023-05-09T13:52:28.680Z,21.18
2023-05-09T13:55:34.863Z,21.01
2023-05-09T13:58:39.769Z,20.96
2023-05-09T14:01:45.325Z,20.95
2023-05-09T14:04:50.977Z,21.25
2023-05-09T14:07:56.526Z,21.15
2023-05-09T14:11:02.090Z,21.11
2023-05-09T14:14:07.743Z,21.42
2023-05-09T14:17:13.683Z,21.27
2023-05-09T14:20:19.797Z,21.27
2023-05-09T14:23:25.404Z,21.52
2023-05-09T14:26:31.289Z,21.44
2023-05-09T14:29:38.665Z,21.60
2023-05-09T14:32:44.716Z,21.80
2023-05-09T14:35:50.046Z,21.78
2023-05-09T14:38:55.071Z,21.87
2023-05-09T14:42:00.496Z,21.63
2023-05-09T14:45:07.520Z,21.69
2023-05-09T14:48:14.537Z,21.70
2023-05-09T14:51:22.039Z,21.84
2023-05-09T14:54:27.763Z,21.93
2023-05-09T14:57:34.002Z,21.52
2023-05-09T15:00:39.540Z,21.54
2023-05-09T15:03:44.687Z,21.70
2023-05-09T15:06:50.111Z,21.87
2023-05-09T15:09:55.439Z,21.81
2023-05-09T15:13:02.698Z,21.88
2023-05-09T15:16:09.105Z,21.82
2023-05-09T15:19:15.037Z,21.51
2023-05-09T15:22:20.507Z,21.54
2023-05-09T15:25:25.987Z,21.86
2023-05-09T15:28:31.592Z,22.02
2023-05-09T15:31:37.190Z,21.93
2023-05-09T15:35:00.853Z,22.05
2023-05-09T15:38:08.695Z,21.93
2023-05-09T15:41:15.039Z,21.75
2023-05-09T15:44:20.909Z,21.63
2023-05-09T15:47:26.105Z,21.47
2023-05-09T15:50:31.978Z,21.85
2023-05-09T15:53:37.103Z,21.94
2023-05-09T15:56:42.449Z,21.84
2023-05-09T15:59:48.096Z,21.82
2023-05-09T16:02:53.350Z,21.87
2023-05-09T16:05:58.991Z,21.68
2023-05-09T16:09:05.154Z,21.55
2023-05-09T16:12:10.872Z,21.53
2023-05-09T16:15:16.170Z,21.47
2023-05-09T16:18:21.770Z,21.46
2023-05-09T16:21:29.386Z,21.40
2023-05-09T16:24:34.874Z,21.26
2023-05-09T16:27:40.163Z,21.17
2023-05-09T16:30:45.632Z,20.99
2023-05-09T16:33:50.788Z,20.93
2023-05-09T16:36:56.072Z,20.91
2023-05-09T16:40:02.084Z,20.68
2023-05-09T16:43:07.716Z,20.84
2023-05-09T16:46:16.598Z,20.75
2023-05-09T16:49:24.314Z,20.52
2023-05-09T16:52:30.765Z,20.37
2023-05-09T16:55:36.295Z,20.32
2023-05-09T16:58:42.123Z,20.16
2023-05-09T17:01:47.867Z,20.22
2023-05-09T17:04:53.322Z,20.14
2023-05-09T17:07:59.213Z,19.99
2023-05-09T17:11:05.711Z,20.09
2023-05-09T17:14:11.232Z,20.12
2023-05-09T17:17:17.921Z,19.92
2023-05-09T17:20:23.364Z,19.92
2023-05-09T17:23:29.219Z,19.99
2023-05-09T17:26:34.223Z,20.04
2023-05-09T17:29:39.511Z,19.89
2023-05-09T17:32:45.151Z,19.80
2023-05-09T17:35:50.596Z,19.75
2023-05-09T17:38:56.407Z,19.63
2023-05-09T17:42:02.130Z,19.67
2023-05-09T17:45:08.413Z,19.60
2023-05-09T17:48:14.801Z,19.59
2023-05-09T17:51:20.461Z,19.52
2023-05-09T17:54:26.251Z,19.45
2023-05-09T17:57:32.005Z,19.34
2023-05-09T18:00:37.837Z,19.28
2023-05-09T18:03:42.882Z,19.31
2023-05-09T18:06:51.544Z,19.28
2023-05-09T18:09:57.397Z,19.19
2023-05-09T18:13:03.724Z,19.17
2023-05-09T18:16:09.304Z,19.12
2023-05-09T18:19:15.091Z,19.13
2023-05-09T18:22:21.875Z,19.09
2023-05-09T18:25:27.756Z,19.05
2023-05-09T18:28:39.467Z,19.05
2023-05-09T18:31:45.032Z,18.98
2023-05-09T18:34:50.621Z,18.91
2023-05-09T18:37:56.367Z,18.94
2023-05-09T18:41:02.368Z,18.94
2023-05-09T18:44:08.938Z,18.87
2023-05-09T18:47:15.480Z,18.84
2023-05-09T18:50:20.919Z,18.81
2023-05-09T18:53:27.093Z,18.79
2023-05-09T18:56:39.452Z,18.72
2023-05-09T18:59:46.222Z,18.57
2023-05-09T19:02:52.061Z,18.65
2023-05-09T19:05:58.888Z,18.65
2023-05-09T19:09:04.780Z,18.60
2023-05-09T19:12:10.088Z,18.59
2023-05-09T19:15:15.243Z,18.54
2023-05-09T19:18:20.639Z,18.50
2023-05-09T19:21:26.230Z,18.52
2023-05-09T19:24:32.982Z,18.42
2023-05-09T19:27:38.533Z,18.42
2023-05-09T19:30:43.914Z,18.42
2023-05-09T19:33:50.000Z,18.36
2023-05-09T19:36:55.513Z,18.31
2023-05-09T19:40:01.433Z,18.17
2023-05-09T19:43:07.072Z,18.15
2023-05-09T19:46:12.700Z,18.11
2023-05-09T19:49:18.683Z,18.04
2023-05-09T19:52:24.567Z,18.02
2023-05-09T19:55:30.183Z,17.93
2023-05-09T19:58:36.092Z,18.01
2023-05-09T20:01:41.428Z,17.88
2023-05-09T20:04:50.113Z,17.90
2023-05-09T20:07:55.601Z,17.78
2023-05-09T20:11:00.582Z,17.81
2023-05-09T20:14:05.930Z,17.67
2023-05-09T20:17:11.558Z,17.64
2023-05-09T20:20:17.907Z,17.65
2023-05-09T20:23:23.540Z,17.68
2023-05-09T20:26:29.890Z,17.52
2023-05-09T20:29:35.041Z,17.58
2023-05-09T20:32:40.844Z,17.54
2023-05-09T20:35:46.234Z,17.48
2023-05-09T20:38:51.812Z,17.45
2023-05-09T20:42:02.521Z,17.47
2023-05-09T20:45:09.086Z,17.48
2023-05-09T20:48:14.377Z,17.49
2023-05-09T20:51:19.631Z,17.33
2023-05-09T20:54:26.058Z,17.28
2023-05-09T20:57:31.818Z,17.29
2023-05-09T21:00:37.071Z,17.21
2023-05-09T21:03:42.701Z,17.15
2023-05-09T21:06:48.477Z,17.08
2023-05-09T21:09:54.481Z,16.92
2023-05-09T21:13:00.017Z,16.93
2023-05-09T21:16:06.311Z,16.79
2023-05-09T21:19:12.109Z,16.88
2023-05-09T21:22:18.009Z,16.80
2023-05-09T21:25:23.575Z,16.77
2023-05-09T21:28:29.759Z,16.76
2023-05-09T21:31:35.837Z,16.79
2023-05-09T21:34:41.295Z,16.82
2023-05-09T21:37:46.863Z,16.75
2023-05-09T21:40:52.270Z,16.72
2023-05-09T21:43:57.642Z,16.74
2023-05-09T21:47:02.908Z,16.71
2023-05-09T21:50:08.925Z,16.82
2023-05-09T21:53:14.864Z,16.86
2023-05-09T21:56:20.185Z,16.73
2023-05-09T21:59:26.869Z,16.83
2023-05-09T22:02:32.263Z,16.65
2023-05-09T22:05:38.052Z,16.59
2023-05-09T22:08:43.032Z,16.62
2023-05-09T22:11:48.201Z,16.62
2023-05-09T22:14:56.653Z,16.60
2023-05-09T22:18:02.625Z,16.45
2023-05-09T22:21:08.025Z,16.43
2023-05-09T22:24:13.324Z,16.46
2023-05-09T22:27:19.406Z,16.44
2023-05-09T22:30:25.278Z,16.49
2023-05-09T22:33:30.475Z,16.48
2023-05-09T22:36:35.934Z,16.33
2023-05-09T22:39:41.269Z,16.33
2023-05-09T22:42:47.948Z,16.25
2023-05-09T22:45:53.692Z,16.09
2023-05-09T22:48:58.761Z,16.08
2023-05-09T22:52:04.561Z,16.18
2023-05-09T22:55:09.953Z,16.04
2023-05-09T22:58:16.512Z,15.92
2023-05-09T23:01:21.907Z,15.99
2023-05-09T23:04:27.581Z,16.09
2023-05-09T23:07:33.375Z,16.17
2023-05-09T23:10:38.691Z,16.08
2023-05-09T23:13:44.286Z,16.18
2023-05-09T23:16:51.188Z,16.11
2023-05-09T23:19:57.041Z,16.16
2023-05-09T23:23:04.100Z,16.04
2023-05-09T23:26:10.621Z,16.07
2023-05-09T23:29:16.073Z,16.08
2023-05-09T23:32:21.502Z,16.09
2023-05-09T23:35:27.547Z,15.93
2023-05-09T23:38:32.821Z,16.02
2023-05-09T23:41:38.609Z,16.00
2023-05-09T23:44:44.162Z,16.17
2023-05-09T23:47:49.673Z,16.22
2023-05-09T23:50:55.516Z,16.10
2023-05-09T23:54:01.164Z,16.15
2023-05-09T23:57:06.987Z,16.07
